sensor_id;sensor_type;location;lat;lon;timestamp;pressure;altitude;pressure_sealevel;temperature;humidity
38197;BME280;26543;51.976;4.616;2023-02-12T00:01:29;53090.97;;;-140.72;100.00
38197;BME280;26543;51.976;4.616;2023-02-12T00:03:55;53070.69;;;-140.72;100.00
38197;BME280;26543;51.976;4.616;2023-02-12T00:06:21;53097.06;;;-140.72;100.00
38197;BME280;26543;51.976;4.616;2023-02-12T00:08:51;53060.53;;;-140.72;100.00
38197;BME280;26543;51.976;4.616;2023-02-12T00:11:21;53056.47;;;-140.72;100.00
38197;BME280;26543;51.976;4.616;2023-02-12T00:13:46;53044.28;;;-140.72;100.00
38197;BME280;26543;51.976;4.616;2023-02-12T00:16:21;53076.75;;;-140.72;100.00
38197;BME280;26543;51.976;4.616;2023-02-12T00:19:00;53084.88;;;-140.72;100.00
38197;BME280;26543;51.976;4.616;2023-02-12T00:21:26;53105.19;;;-140.72;100.00
38197;BME280;26543;51.976;4.616;2023-02-12T00:23:52;53074.72;;;-140.72;100.00
38197;BME280;26543;51.976;4.616;2023-02-12T00:26:19;53064.59;;;-140.72;100.00
38197;BME280;26543;51.976;4.616;2023-02-12T00:28:45;53076.75;;;-140.72;100.00
38197;BME280;26543;51.976;4.616;2023-02-12T00:31:16;53084.88;;;-140.72;100.00
38197;BME280;26543;51.976;4.616;2023-02-12T00:33:46;53093.00;;;-140.72;100.00
38197;BME280;26543;51.976;4.616;2023-02-12T00:36:17;53105.19;;;-140.72;100.00
38197;BME280;26543;51.976;4.616;2023-02-12T00:38:44;53105.19;;;-140.72;100.00
38197;BME280;26543;51.976;4.616;2023-02-12T00:41:11;53080.81;;;-140.72;100.00
38197;BME280;26543;51.976;4.616;2023-02-12T00:43:37;53103.16;;;-140.72;100.00
38197;BME280;26543;51.976;4.616;2023-02-12T00:46:04;53064.59;;;-140.72;100.00
38197;BME280;26543;51.976;4.616;2023-02-12T00:48:31;53097.06;;;-140.72;100.00
38197;BME280;26543;51.976;4.616;2023-02-12T00:50:56;53109.22;;;-140.72;100.00
38197;BME280;26543;51.976;4.616;2023-02-12T00:53:22;53042.25;;;-140.72;100.00
38197;BME280;26543;51.976;4.616;2023-02-12T00:55:47;53117.34;;;-140.72;100.00
38197;BME280;26543;51.976;4.616;2023-02-12T00:58:13;53064.59;;;-140.72;100.00
38197;BME280;26543;51.976;4.616;2023-02-12T01:00:38;53084.88;;;-140.72;100.00
38197;BME280;26543;51.976;4.616;2023-02-12T01:03:04;53093.00;;;-140.72;100.00
38197;BME280;26543;51.976;4.616;2023-02-12T01:05:30;53078.78;;;-140.72;100.00
38197;BME280;26543;51.976;4.616;2023-02-12T01:07:55;53082.84;;;-140.72;100.00
38197;BME280;26543;51.976;4.616;2023-02-12T01:10:21;53074.72;;;-140.72;100.00
38197;BME280;26543;51.976;4.616;2023-02-12T01:12:51;53072.69;;;-140.72;100.00
38197;BME280;26543;51.976;4.616;2023-02-12T01:15:17;53048.34;;;-140.72;100.00
38197;BME280;26543;51.976;4.616;2023-02-12T01:17:46;53036.16;;;-140.72;100.00
38197;BME280;26543;51.976;4.616;2023-02-12T01:20:14;53072.69;;;-140.72;100.00
38197;BME280;26543;51.976;4.616;2023-02-12T01:22:42;53074.72;;;-140.72;100.00
38197;BME280;26543;51.976;4.616;2023-02-12T01:25:10;53103.16;;;-140.72;100.00
38197;BME280;26543;51.976;4.616;2023-02-12T01:27:36;53097.06;;;-140.72;100.00
38197;BME280;26543;51.976;4.616;2023-02-12T01:30:02;53064.59;;;-140.72;100.00
38197;BME280;26543;51.976;4.616;2023-02-12T01:32:28;53076.75;;;-140.72;100.00
38197;BME280;26543;51.976;4.616;2023-02-12T01:34:53;53109.22;;;-140.72;100.00
38197;BME280;26543;51.976;4.616;2023-02-12T01:37:19;53078.78;;;-140.72;100.00
38197;BME280;26543;51.976;4.616;2023-02-12T01:39:48;53099.09;;;-140.72;100.00
38197;BME280;26543;51.976;4.616;2023-02-12T01:42:14;53060.53;;;-140.72;100.00
38197;BME280;26543;51.976;4.616;2023-02-12T01:44:45;53058.50;;;-140.72;100.00
38197;BME280;26543;51.976;4.616;2023-02-12T01:47:29;53030.09;;;-140.72;100.00
38197;BME280;26543;51.976;4.616;2023-02-12T01:49:56;53139.69;;;-140.72;100.00
38197;BME280;26543;51.976;4.616;2023-02-12T01:52:27;53078.78;;;-140.72;100.00
38197;BME280;26543;51.976;4.616;2023-02-12T01:54:57;53084.88;;;-140.72;100.00
38197;BME280;26543;51.976;4.616;2023-02-12T01:57:26;53060.53;;;-140.72;100.00
38197;BME280;26543;51.976;4.616;2023-02-12T01:59:53;53064.59;;;-140.72;100.00
38197;BME280;26543;51.976;4.616;2023-02-12T02:02:20;53082.84;;;-140.72;100.00
38197;BME280;26543;51.976;4.616;2023-02-12T02:04:50;53123.44;;;-140.72;100.00
38197;BME280;26543;51.976;4.616;2023-02-12T02:07:15;53072.69;;;-140.72;100.00
38197;BME280;26543;51.976;4.616;2023-02-12T02:09:41;53088.94;;;-140.72;100.00
38197;BME280;26543;51.976;4.616;2023-02-12T02:12:07;53109.22;;;-140.72;100.00
38197;BME280;26543;51.976;4.616;2023-02-12T02:14:54;53111.25;;;-140.72;100.00
38197;BME280;26543;51.976;4.616;2023-02-12T02:26:15;53099.09;;;-140.72;100.00
38197;BME280;26543;51.976;4.616;2023-02-12T02:31:03;53099.09;;;-140.72;100.00
38197;BME280;26543;51.976;4.616;2023-02-12T02:33:35;53105.19;;;-140.72;100.00
38197;BME280;26543;51.976;4.616;2023-02-12T02:36:22;53088.94;;;-140.72;100.00
38197;BME280;26543;51.976;4.616;2023-02-12T02:41:45;53097.06;;;-140.72;100.00
38197;BME280;26543;51.976;4.616;2023-02-12T02:44:17;53109.22;;;-140.72;100.00
38197;BME280;26543;51.976;4.616;2023-02-12T02:46:47;53093.00;;;-140.72;100.00
38197;BME280;26543;51.976;4.616;2023-02-12T02:49:32;53095.03;;;-140.72;100.00
38197;BME280;26543;51.976;4.616;2023-02-12T02:52:08;53084.88;;;-140.72;100.00
38197;BME280;26543;51.976;4.616;2023-02-12T02:54:45;53080.81;;;-140.72;100.00
38197;BME280;26543;51.976;4.616;2023-02-12T02:57:30;53068.66;;;-140.72;100.00
38197;BME280;26543;51.976;4.616;2023-02-12T03:00:12;53101.13;;;-140.72;100.00
38197;BME280;26543;51.976;4.616;2023-02-12T03:02:41;53086.91;;;-140.72;100.00
38197;BME280;26543;51.976;4.616;2023-02-12T03:05:13;53109.22;;;-140.72;100.00
38197;BME280;26543;51.976;4.616;2023-02-12T03:07:49;53127.50;;;-140.72;100.00
38197;BME280;26543;51.976;4.616;2023-02-12T03:10:26;53127.50;;;-140.72;100.00
38197;BME280;26543;51.976;4.616;2023-02-12T03:12:59;53076.75;;;-140.72;100.00
38197;BME280;26543;51.976;4.616;2023-02-12T03:15:36;53093.00;;;-140.72;100.00
38197;BME280;26543;51.976;4.616;2023-02-12T03:18:08;53117.34;;;-140.72;100.00
38197;BME280;26543;51.976;4.616;2023-02-12T03:20:41;53095.03;;;-140.72;100.00
38197;BME280;26543;51.976;4.616;2023-02-12T03:23:14;53105.19;;;-140.72;100.00
38197;BME280;26543;51.976;4.616;2023-02-12T03:25:58;53076.75;;;-140.72;100.00
38197;BME280;26543;51.976;4.616;2023-02-12T03:28:30;53113.28;;;-140.72;100.00
38197;BME280;26543;51.976;4.616;2023-02-12T03:38:53;53080.81;;;-140.72;100.00
38197;BME280;26543;51.976;4.616;2023-02-12T03:41:28;53105.19;;;-140.72;100.00
38197;BME280;26543;51.976;4.616;2023-02-12T03:44:05;53058.50;;;-140.72;100.00
38197;BME280;26543;51.976;4.616;2023-02-12T03:49:18;53084.88;;;-140.72;100.00
38197;BME280;26543;51.976;4.616;2023-02-12T03:51:44;53095.03;;;-140.72;100.00
38197;BME280;26543;51.976;4.616;2023-02-12T03:54:13;53101.13;;;-140.72;100.00
38197;BME280;26543;51.976;4.616;2023-02-12T03:56:42;53101.13;;;-140.72;100.00
38197;BME280;26543;51.976;4.616;2023-02-12T03:59:08;53095.03;;;-140.72;100.00
38197;BME280;26543;51.976;4.616;2023-02-12T04:01:34;53115.31;;;-140.72;100.00
38197;BME280;26543;51.976;4.616;2023-02-12T04:04:06;53070.69;;;-140.72;100.00
38197;BME280;26543;51.976;4.616;2023-02-12T04:06:32;53086.91;;;-140.72;100.00
38197;BME280;26543;51.976;4.616;2023-02-12T04:09:02;53084.88;;;-140.72;100.00
38197;BME280;26543;51.976;4.616;2023-02-12T04:19:09;53056.47;;;-140.72;100.00
38197;BME280;26543;51.976;4.616;2023-02-12T04:21:51;53097.06;;;-140.72;100.00
38197;BME280;26543;51.976;4.616;2023-02-12T04:27:18;53129.53;;;-140.72;100.00
38197;BME280;26543;51.976;4.616;2023-02-12T04:30:06;53103.16;;;-140.72;100.00
38197;BME280;26543;51.976;4.616;2023-02-12T04:32:44;53103.16;;;-140.72;100.00
38197;BME280;26543;51.976;4.616;2023-02-12T04:38:05;53093.00;;;-140.72;100.00
38197;BME280;26543;51.976;4.616;2023-02-12T04:40:34;53056.47;;;-140.72;100.00
38197;BME280;26543;51.976;4.616;2023-02-12T04:43:01;53066.63;;;-140.72;100.00
38197;BME280;26543;51.976;4.616;2023-02-12T04:45:29;53054.44;;;-140.72;100.00
38197;BME280;26543;51.976;4.616;2023-02-12T04:47:59;53082.84;;;-140.72;100.00
38197;BME280;26543;51.976;4.616;2023-02-12T04:50:25;53090.97;;;-140.72;100.00
38197;BME280;26543;51.976;4.616;2023-02-12T04:52:50;53125.47;;;-140.72;100.00
38197;BME280;26543;51.976;4.616;2023-02-12T04:55:16;53064.59;;;-140.72;100.00
38197;BME280;26543;51.976;4.616;2023-02-12T04:57:41;53105.19;;;-140.72;100.00
38197;BME280;26543;51.976;4.616;2023-02-12T05:00:10;53105.19;;;-140.72;100.00
38197;BME280;26543;51.976;4.616;2023-02-12T05:02:36;53093.00;;;-140.72;100.00
38197;BME280;26543;51.976;4.616;2023-02-12T05:05:02;53086.91;;;-140.72;100.00
38197;BME280;26543;51.976;4.616;2023-02-12T05:07:27;53109.22;;;-140.72;100.00
38197;BME280;26543;51.976;4.616;2023-02-12T05:09:53;53117.34;;;-140.72;100.00
38197;BME280;26543;51.976;4.616;2023-02-12T05:12:18;53093.00;;;-140.72;100.00
38197;BME280;26543;51.976;4.616;2023-02-12T05:14:44;53145.75;;;-140.72;100.00
38197;BME280;26543;51.976;4.616;2023-02-12T05:17:09;53105.19;;;-140.72;100.00
38197;BME280;26543;51.976;4.616;2023-02-12T05:19:35;53097.06;;;-140.72;100.00
38197;BME280;26543;51.976;4.616;2023-02-12T05:22:01;53123.44;;;-140.72;100.00
38197;BME280;26543;51.976;4.616;2023-02-12T05:24:26;53093.00;;;-140.72;100.00
38197;BME280;26543;51.976;4.616;2023-02-12T05:26:52;53113.28;;;-140.72;100.00
38197;BME280;26543;51.976;4.616;2023-02-12T05:29:17;53127.50;;;-140.72;100.00
38197;BME280;26543;51.976;4.616;2023-02-12T05:31:46;53097.06;;;-140.72;100.00
38197;BME280;26543;51.976;4.616;2023-02-12T05:34:14;53062.56;;;-140.72;100.00
38197;BME280;26543;51.976;4.616;2023-02-12T05:36:40;53097.06;;;-140.72;100.00
38197;BME280;26543;51.976;4.616;2023-02-12T05:39:06;53088.94;;;-140.72;100.00
38197;BME280;26543;51.976;4.616;2023-02-12T05:41:32;53101.13;;;-140.72;100.00
38197;BME280;26543;51.976;4.616;2023-02-12T05:44:01;53097.06;;;-140.72;100.00
38197;BME280;26543;51.976;4.616;2023-02-12T05:46:26;53032.13;;;-140.72;100.00
38197;BME280;26543;51.976;4.616;2023-02-12T05:48:52;53080.81;;;-140.72;100.00
38197;BME280;26543;51.976;4.616;2023-02-12T05:51:22;53084.88;;;-140.72;100.00
38197;BME280;26543;51.976;4.616;2023-02-12T05:53:50;53084.88;;;-140.72;100.00
38197;BME280;26543;51.976;4.616;2023-02-12T05:56:24;53105.19;;;-140.72;100.00
38197;BME280;26543;51.976;4.616;2023-02-12T05:59:02;53117.34;;;-140.72;100.00
38197;BME280;26543;51.976;4.616;2023-02-12T06:01:35;53093.00;;;-140.72;100.00
38197;BME280;26543;51.976;4.616;2023-02-12T06:04:03;53082.84;;;-140.72;100.00
38197;BME280;26543;51.976;4.616;2023-02-12T06:06:30;53105.19;;;-140.72;100.00
38197;BME280;26543;51.976;4.616;2023-02-12T06:08:56;53095.03;;;-140.72;100.00
38197;BME280;26543;51.976;4.616;2023-02-12T06:11:22;53125.47;;;-140.72;100.00
38197;BME280;26543;51.976;4.616;2023-02-12T06:13:47;53090.97;;;-140.72;100.00
38197;BME280;26543;51.976;4.616;2023-02-12T06:16:22;53119.38;;;-140.72;100.00
38197;BME280;26543;51.976;4.616;2023-02-12T06:18:48;53129.53;;;-140.72;100.00
38197;BME280;26543;51.976;4.616;2023-02-12T06:21:14;53084.88;;;-140.72;100.00
38197;BME280;26543;51.976;4.616;2023-02-12T06:23:40;53111.25;;;-140.72;100.00
38197;BME280;26543;51.976;4.616;2023-02-12T06:26:06;53082.84;;;-140.72;100.00
38197;BME280;26543;51.976;4.616;2023-02-12T06:28:31;53090.97;;;-140.72;100.00
38197;BME280;26543;51.976;4.616;2023-02-12T06:30:57;53109.22;;;-140.72;100.00
38197;BME280;26543;51.976;4.616;2023-02-12T06:33:22;53137.66;;;-140.72;100.00
38197;BME280;26543;51.976;4.616;2023-02-12T06:35:47;53097.06;;;-140.72;100.00
38197;BME280;26543;51.976;4.616;2023-02-12T06:38:13;53131.56;;;-140.72;100.00
38197;BME280;26543;51.976;4.616;2023-02-12T06:40:38;53072.69;;;-140.72;100.00
38197;BME280;26543;51.976;4.616;2023-02-12T06:43:04;53093.00;;;-140.72;100.00
38197;BME280;26543;51.976;4.616;2023-02-12T06:45:29;53093.00;;;-140.72;100.00
38197;BME280;26543;51.976;4.616;2023-02-12T06:47:55;53105.19;;;-140.72;100.00
38197;BME280;26543;51.976;4.616;2023-02-12T06:50:20;53097.06;;;-140.72;100.00
38197;BME280;26543;51.976;4.616;2023-02-12T06:52:46;53117.34;;;-140.72;100.00
38197;BME280;26543;51.976;4.616;2023-02-12T06:55:11;53113.28;;;-140.72;100.00
38197;BME280;26543;51.976;4.616;2023-02-12T06:57:37;53078.78;;;-140.72;100.00
38197;BME280;26543;51.976;4.616;2023-02-12T07:00:03;53109.22;;;-140.72;100.00
38197;BME280;26543;51.976;4.616;2023-02-12T07:02:28;53105.19;;;-140.72;100.00
38197;BME280;26543;51.976;4.616;2023-02-12T07:04:54;53105.19;;;-140.72;100.00
38197;BME280;26543;51.976;4.616;2023-02-12T07:07:19;53107.19;;;-140.72;100.00
38197;BME280;26543;51.976;4.616;2023-02-12T07:09:44;53103.16;;;-140.72;100.00
38197;BME280;26543;51.976;4.616;2023-02-12T07:12:10;53105.19;;;-140.72;100.00
38197;BME280;26543;51.976;4.616;2023-02-12T07:14:38;53131.56;;;-140.72;100.00
38197;BME280;26543;51.976;4.616;2023-02-12T07:17:04;53121.41;;;-140.72;100.00
38197;BME280;26543;51.976;4.616;2023-02-12T07:19:32;53093.00;;;-140.72;100.00
38197;BME280;26543;51.976;4.616;2023-02-12T07:21:57;53064.59;;;-140.72;100.00
38197;BME280;26543;51.976;4.616;2023-02-12T07:24:23;53109.22;;;-140.72;100.00
38197;BME280;26543;51.976;4.616;2023-02-12T07:26:48;53121.41;;;-140.72;100.00
38197;BME280;26543;51.976;4.616;2023-02-12T07:29:13;53097.06;;;-140.72;100.00
38197;BME280;26543;51.976;4.616;2023-02-12T07:31:40;53074.72;;;-140.72;100.00
38197;BME280;26543;51.976;4.616;2023-02-12T07:34:06;53097.06;;;-140.72;100.00
38197;BME280;26543;51.976;4.616;2023-02-12T07:36:32;53109.22;;;-140.72;100.00
38197;BME280;26543;51.976;4.616;2023-02-12T07:38:58;53058.50;;;-140.72;100.00
38197;BME280;26543;51.976;4.616;2023-02-12T07:41:28;53088.94;;;-140.72;100.00
38197;BME280;26543;51.976;4.616;2023-02-12T07:43:59;53090.97;;;-140.72;100.00
38197;BME280;26543;51.976;4.616;2023-02-12T07:46:27;53078.78;;;-140.72;100.00
38197;BME280;26543;51.976;4.616;2023-02-12T07:48:57;53117.34;;;-140.72;100.00
38197;BME280;26543;51.976;4.616;2023-02-12T07:51:26;53056.47;;;-140.72;100.00
38197;BME280;26543;51.976;4.616;2023-02-12T07:53:52;53056.47;;;-140.72;100.00
38197;BME280;26543;51.976;4.616;2023-02-12T07:56:25;53131.56;;;-140.72;100.00
38197;BME280;26543;51.976;4.616;2023-02-12T07:58:58;53103.16;;;-140.72;100.00
38197;BME280;26543;51.976;4.616;2023-02-12T08:01:25;53105.19;;;-140.72;100.00
38197;BME280;26543;51.976;4.616;2023-02-12T08:03:52;53095.03;;;-140.72;100.00
38197;BME280;26543;51.976;4.616;2023-02-12T08:06:23;53125.47;;;-140.72;100.00
38197;BME280;26543;51.976;4.616;2023-02-12T08:08:57;53088.94;;;-140.72;100.00
38197;BME280;26543;51.976;4.616;2023-02-12T08:11:24;53070.69;;;-140.72;100.00
38197;BME280;26543;51.976;4.616;2023-02-12T08:13:50;53115.31;;;-140.72;100.00
38197;BME280;26543;51.976;4.616;2023-02-12T08:16:21;53095.03;;;-140.72;100.00
38197;BME280;26543;51.976;4.616;2023-02-12T08:18:48;53093.00;;;-140.72;100.00
38197;BME280;26543;51.976;4.616;2023-02-12T08:21:16;53090.97;;;-140.72;100.00
38197;BME280;26543;51.976;4.616;2023-02-12T08:23:43;53070.69;;;-140.72;100.00
38197;BME280;26543;51.976;4.616;2023-02-12T08:28:35;53090.97;;;-140.72;100.00
38197;BME280;26543;51.976;4.616;2023-02-12T08:31:06;53097.06;;;-140.72;100.00
38197;BME280;26543;51.976;4.616;2023-02-12T08:33:33;53064.59;;;-140.72;100.00
38197;BME280;26543;51.976;4.616;2023-02-12T08:36:07;53088.94;;;-140.72;100.00
38197;BME280;26543;51.976;4.616;2023-02-12T08:38:34;53068.66;;;-140.72;100.00
38197;BME280;26543;51.976;4.616;2023-02-12T08:41:14;53068.66;;;-140.72;100.00
38197;BME280;26543;51.976;4.616;2023-02-12T08:43:41;53052.41;;;-140.72;100.00
38197;BME280;26543;51.976;4.616;2023-02-12T08:46:21;53072.69;;;-140.72;100.00
38197;BME280;26543;51.976;4.616;2023-02-12T08:48:50;53054.44;;;-140.72;100.00
38197;BME280;26543;51.976;4.616;2023-02-12T08:51:21;53050.38;;;-140.72;100.00
38197;BME280;26543;51.976;4.616;2023-02-12T08:53:53;53076.75;;;-140.72;100.00
38197;BME280;26543;51.976;4.616;2023-02-12T08:56:23;53074.72;;;-140.72;100.00
38197;BME280;26543;51.976;4.616;2023-02-12T08:58:49;53026.03;;;-140.72;100.00
38197;BME280;26543;51.976;4.616;2023-02-12T09:01:21;53070.69;;;-140.72;100.00
38197;BME280;26543;51.976;4.616;2023-02-12T09:04:04;53080.81;;;-140.72;100.00
38197;BME280;26543;51.976;4.616;2023-02-12T09:06:32;53040.22;;;-140.72;100.00
38197;BME280;26543;51.976;4.616;2023-02-12T09:08:58;53013.84;;;-140.72;100.00
38197;BME280;26543;51.976;4.616;2023-02-12T09:11:25;53064.59;;;-140.72;100.00
38197;BME280;26543;51.976;4.616;2023-02-12T09:14:05;53090.97;;;-140.72;100.00
38197;BME280;26543;51.976;4.616;2023-02-12T09:16:33;53068.66;;;-140.72;100.00
38197;BME280;26543;51.976;4.616;2023-02-12T09:18:59;53028.06;;;-140.72;100.00
38197;BME280;26543;51.976;4.616;2023-02-12T09:21:25;53038.19;;;-140.72;100.00
38197;BME280;26543;51.976;4.616;2023-02-12T09:23:51;52997.63;;;-140.72;100.00
38197;BME280;26543;51.976;4.616;2023-02-12T09:26:19;53026.03;;;-140.72;100.00
38197;BME280;26543;51.976;4.616;2023-02-12T09:28:56;53058.50;;;-140.72;100.00
38197;BME280;26543;51.976;4.616;2023-02-12T09:31:26;53064.59;;;-140.72;100.00
38197;BME280;26543;51.976;4.616;2023-02-12T09:34:13;53032.13;;;-140.72;100.00
38197;BME280;26543;51.976;4.616;2023-02-12T09:36:39;53026.03;;;-140.72;100.00
38197;BME280;26543;51.976;4.616;2023-02-12T09:39:07;53032.13;;;-140.72;100.00
38197;BME280;26543;51.976;4.616;2023-02-12T09:42:01;53011.81;;;-140.72;100.00
38197;BME280;26543;51.976;4.616;2023-02-12T09:48:04;53048.34;;;-140.72;100.00
38197;BME280;26543;51.976;4.616;2023-02-12T09:50:55;53050.38;;;-140.72;100.00
38197;BME280;26543;51.976;4.616;2023-02-12T09:53:27;53038.19;;;-140.72;100.00
38197;BME280;26543;51.976;4.616;2023-02-12T09:55:54;53015.88;;;-140.72;100.00
38197;BME280;26543;51.976;4.616;2023-02-12T09:58:33;53003.69;;;-140.72;100.00
38197;BME280;26543;51.976;4.616;2023-02-12T10:01:03;53048.34;;;-140.72;100.00
38197;BME280;26543;51.976;4.616;2023-02-12T10:03:35;53044.28;;;-140.72;100.00
38197;BME280;26543;51.976;4.616;2023-02-12T10:06:07;53019.94;;;-140.72;100.00
38197;BME280;26543;51.976;4.616;2023-02-12T10:08:39;52999.66;;;-140.72;100.00
38197;BME280;26543;51.976;4.616;2023-02-12T10:19:05;52977.31;;;-140.72;100.00
38197;BME280;26543;51.976;4.616;2023-02-12T10:25:08;53032.13;;;-140.72;100.00
38197;BME280;26543;51.976;4.616;2023-02-12T10:27:48;53013.84;;;-140.72;100.00
38197;BME280;26543;51.976;4.616;2023-02-12T10:30:30;53001.66;;;-140.72;100.00
38197;BME280;26543;51.976;4.616;2023-02-12T10:33:03;52957.03;;;-140.72;100.00
38197;BME280;26543;51.976;4.616;2023-02-12T10:35:31;53003.69;;;-140.72;100.00
38197;BME280;26543;51.976;4.616;2023-02-12T10:38:03;53001.66;;;-140.72;100.00
38197;BME280;26543;51.976;4.616;2023-02-12T10:40:32;53009.78;;;-140.72;100.00
38197;BME280;26543;51.976;4.616;2023-02-12T10:42:59;52995.59;;;-140.72;100.00
38197;BME280;26543;51.976;4.616;2023-02-12T10:45:33;52971.22;;;-140.72;100.00
38197;BME280;26543;51.976;4.616;2023-02-12T10:48:12;53007.75;;;-140.72;100.00
38197;BME280;26543;51.976;4.616;2023-02-12T10:51:10;52987.47;;;-140.72;100.00
38197;BME280;26543;51.976;4.616;2023-02-12T10:53:43;52957.03;;;-140.72;100.00
38197;BME280;26543;51.976;4.616;2023-02-12T10:56:20;52991.53;;;-140.72;100.00
38197;BME280;26543;51.976;4.616;2023-02-12T10:58:56;52981.38;;;-140.72;100.00
38197;BME280;26543;51.976;4.616;2023-02-12T11:01:28;53013.84;;;-140.72;100.00
38197;BME280;26543;51.976;4.616;2023-02-12T11:03:56;52959.06;;;-140.72;100.00
38197;BME280;26543;51.976;4.616;2023-02-12T11:06:31;53038.19;;;-140.72;100.00
38197;BME280;26543;51.976;4.616;2023-02-12T11:08:57;53026.03;;;-140.72;100.00
38197;BME280;26543;51.976;4.616;2023-02-12T11:11:28;53001.66;;;-140.72;100.00
38197;BME280;26543;51.976;4.616;2023-02-12T11:17:02;53030.09;;;-140.72;100.00
38197;BME280;26543;51.976;4.616;2023-02-12T11:19:29;52979.34;;;-140.72;100.00
38197;BME280;26543;51.976;4.616;2023-02-12T11:22:12;53021.97;;;-140.72;100.00
38197;BME280;26543;51.976;4.616;2023-02-12T11:24:43;52985.44;;;-140.72;100.00
38197;BME280;26543;51.976;4.616;2023-02-12T11:27:18;52995.59;;;-140.72;100.00
38197;BME280;26543;51.976;4.616;2023-02-12T11:29:45;53026.03;;;-140.72;100.00
38197;BME280;26543;51.976;4.616;2023-02-12T11:32:16;52989.50;;;-140.72;100.00
38197;BME280;26543;51.976;4.616;2023-02-12T11:34:41;52983.41;;;-140.72;100.00
38197;BME280;26543;51.976;4.616;2023-02-12T11:37:17;53001.66;;;-140.72;100.00
38197;BME280;26543;51.976;4.616;2023-02-12T11:39:48;53007.75;;;-140.72;100.00
38197;BME280;26543;51.976;4.616;2023-02-12T11:42:23;53007.75;;;-140.72;100.00
38197;BME280;26543;51.976;4.616;2023-02-12T11:44:54;52987.47;;;-140.72;100.00
38197;BME280;26543;51.976;4.616;2023-02-12T11:47:27;53005.72;;;-140.72;100.00
38197;BME280;26543;51.976;4.616;2023-02-12T11:49:58;52975.28;;;-140.72;100.00
38197;BME280;26543;51.976;4.616;2023-02-12T11:52:32;53015.88;;;-140.72;100.00
38197;BME280;26543;51.976;4.616;2023-02-12T11:55:00;53009.78;;;-140.72;100.00
38197;BME280;26543;51.976;4.616;2023-02-12T12:00:24;52993.56;;;-140.72;100.00
38197;BME280;26543;51.976;4.616;2023-02-12T12:03:12;52995.59;;;-140.72;100.00
38197;BME280;26543;51.976;4.616;2023-02-12T12:05:44;52965.16;;;-140.72;100.00
38197;BME280;26543;51.976;4.616;2023-02-12T12:11:17;52995.59;;;-140.72;100.00
38197;BME280;26543;51.976;4.616;2023-02-12T12:14:01;52977.31;;;-140.72;100.00
38197;BME280;26543;51.976;4.616;2023-02-12T12:16:36;53009.78;;;-140.72;100.00
38197;BME280;26543;51.976;4.616;2023-02-12T12:19:27;52987.47;;;-140.72;100.00
38197;BME280;26543;51.976;4.616;2023-02-12T12:22:45;53003.69;;;-140.72;100.00
38197;BME280;26543;51.976;4.616;2023-02-12T12:28:14;52987.47;;;-140.72;100.00
38197;BME280;26543;51.976;4.616;2023-02-12T12:30:49;52995.59;;;-140.72;100.00
38197;BME280;26543;51.976;4.616;2023-02-12T12:33:39;52995.59;;;-140.72;100.00
38197;BME280;26543;51.976;4.616;2023-02-12T12:41:23;52987.47;;;-140.72;100.00
38197;BME280;26543;51.976;4.616;2023-02-12T12:44:08;53005.72;;;-140.72;100.00
38197;BME280;26543;51.976;4.616;2023-02-12T12:50:03;53044.28;;;-140.72;100.00
38197;BME280;26543;51.976;4.616;2023-02-12T13:03:15;53007.75;;;-140.72;100.00
38197;BME280;26543;51.976;4.616;2023-02-12T13:10:55;53003.69;;;-140.72;100.00
38197;BME280;26543;51.976;4.616;2023-02-12T13:13:30;52971.22;;;-140.72;100.00
38197;BME280;26543;51.976;4.616;2023-02-12T13:18:49;52987.47;;;-140.72;100.00
38197;BME280;26543;51.976;4.616;2023-02-12T13:26:42;52979.34;;;-140.72;100.00
38197;BME280;26543;51.976;4.616;2023-02-12T13:29:17;53011.81;;;-140.72;100.00
38197;BME280;26543;51.976;4.616;2023-02-12T13:31:54;52989.50;;;-140.72;100.00
38197;BME280;26543;51.976;4.616;2023-02-12T13:34:21;53021.97;;;-140.72;100.00
38197;BME280;26543;51.976;4.616;2023-02-12T13:36:51;53019.94;;;-140.72;100.00
38197;BME280;26543;51.976;4.616;2023-02-12T13:39:35;53060.53;;;-140.72;100.00
38197;BME280;26543;51.976;4.616;2023-02-12T13:45:12;53001.66;;;-140.72;100.00
38197;BME280;26543;51.976;4.616;2023-02-12T13:53:24;53026.03;;;-140.72;100.00
38197;BME280;26543;51.976;4.616;2023-02-12T13:56:16;53015.88;;;-140.72;100.00
38197;BME280;26543;51.976;4.616;2023-02-12T13:58:50;53017.91;;;-140.72;100.00
38197;BME280;26543;51.976;4.616;2023-02-12T14:01:38;53011.81;;;-140.72;100.00
38197;BME280;26543;51.976;4.616;2023-02-12T14:04:42;53017.91;;;-140.72;100.00
38197;BME280;26543;51.976;4.616;2023-02-12T14:07:14;52997.63;;;-140.72;100.00
38197;BME280;26543;51.976;4.616;2023-02-12T14:12:34;53021.97;;;-140.72;100.00
38197;BME280;26543;51.976;4.616;2023-02-12T14:15:08;53011.81;;;-140.72;100.00
38197;BME280;26543;51.976;4.616;2023-02-12T14:30:36;52995.59;;;-140.72;100.00
38197;BME280;26543;51.976;4.616;2023-02-12T14:33:28;52999.66;;;-140.72;100.00
38197;BME280;26543;51.976;4.616;2023-02-12T14:41:47;53058.50;;;-140.72;100.00
38197;BME280;26543;51.976;4.616;2023-02-12T14:49:46;53026.03;;;-140.72;100.00
38197;BME280;26543;51.976;4.616;2023-02-12T14:54:44;52987.47;;;-140.72;100.00
38197;BME280;26543;51.976;4.616;2023-02-12T14:57:39;53028.06;;;-140.72;100.00
38197;BME280;26543;51.976;4.616;2023-02-12T15:02:54;53011.81;;;-140.72;100.00
38197;BME280;26543;51.976;4.616;2023-02-12T15:05:26;53068.66;;;-140.72;100.00
38197;BME280;26543;51.976;4.616;2023-02-12T15:07:58;53011.81;;;-140.72;100.00
38197;BME280;26543;51.976;4.616;2023-02-12T15:10:31;53007.75;;;-140.72;100.00